sensor_id;sensor_type;location;lat;lon;timestamp;pressure;altitude;pressure_sealevel;temperature;humidity
6343;BME280;3204;42.698;23.298;2023-04-16T00:01:15;94377.94;;;13.62;57.56
6343;BME280;3204;42.698;23.298;2023-04-16T00:03:41;94383.94;;;13.67;57.57
6343;BME280;3204;42.698;23.298;2023-04-16T00:06:06;94383.72;;;13.60;56.69
6343;BME280;3204;42.698;23.298;2023-04-16T00:08:31;94376.47;;;13.40;57.06
6343;BME280;3204;42.698;23.298;2023-04-16T00:10:57;94383.16;;;13.43;56.90
6343;BME280;3204;42.698;23.298;2023-04-16T00:13:22;94382.47;;;13.22;57.12
6343;BME280;3204;42.698;23.298;2023-04-16T00:15:48;94386.06;;;13.14;55.85
6343;BME280;3204;42.698;23.298;2023-04-16T00:18:13;94388.00;;;13.13;55.20
6343;BME280;3204;42.698;23.298;2023-04-16T00:20:39;94383.56;;;13.09;55.41
6343;BME280;3204;42.698;23.298;2023-04-16T00:23:04;94384.59;;;13.04;56.61
6343;BME280;3204;42.698;23.298;2023-04-16T00:25:30;94378.47;;;13.07;55.34
6343;BME280;3204;42.698;23.298;2023-04-16T00:27:55;94387.88;;;12.98;55.55
6343;BME280;3204;42.698;23.298;2023-04-16T00:30:21;94381.47;;;12.94;54.52
6343;BME280;3204;42.698;23.298;2023-04-16T00:32:47;94380.34;;;12.95;52.14
6343;BME280;3204;42.698;23.298;2023-04-16T00:35:12;94389.06;;;12.88;50.96
6343;BME280;3204;42.698;23.298;2023-04-16T00:37:38;94387.78;;;12.74;50.80
6343;BME280;3204;42.698;23.298;2023-04-16T00:40:04;94387.50;;;12.67;49.75
6343;BME280;3204;42.698;23.298;2023-04-16T00:42:29;94382.06;;;12.67;49.29
6343;BME280;3204;42.698;23.298;2023-04-16T00:44:55;94387.22;;;12.48;49.58
6343;BME280;3204;42.698;23.298;2023-04-16T00:47:20;94383.50;;;12.52;49.41
6343;BME280;3204;42.698;23.298;2023-04-16T00:49:46;94374.47;;;12.40;49.48
6343;BME280;3204;42.698;23.298;2023-04-16T00:52:11;94379.69;;;12.33;49.69
6343;BME280;3204;42.698;23.298;2023-04-16T00:54:38;94381.25;;;12.34;49.50
6343;BME280;3204;42.698;23.298;2023-04-16T00:57:03;94382.19;;;12.38;49.13
6343;BME280;3204;42.698;23.298;2023-04-16T00:59:30;94378.63;;;12.25;49.46
6343;BME280;3204;42.698;23.298;2023-04-16T01:01:56;94379.16;;;12.19;49.64
6343;BME280;3204;42.698;23.298;2023-04-16T01:04:21;94378.16;;;12.23;49.50
6343;BME280;3204;42.698;23.298;2023-04-16T01:06:46;94373.59;;;12.15;49.74
6343;BME280;3204;42.698;23.298;2023-04-16T01:09:12;94369.63;;;12.13;49.68
6343;BME280;3204;42.698;23.298;2023-04-16T01:11:38;94367.97;;;12.20;49.54
6343;BME280;3204;42.698;23.298;2023-04-16T01:14:03;94377.44;;;12.14;49.57
6343;BME280;3204;42.698;23.298;2023-04-16T01:16:30;94370.47;;;12.05;50.01
6343;BME280;3204;42.698;23.298;2023-04-16T01:18:56;94369.81;;;12.08;49.92
6343;BME280;3204;42.698;23.298;2023-04-16T01:21:21;94367.75;;;12.05;49.76
6343;BME280;3204;42.698;23.298;2023-04-16T01:23:47;94374.38;;;12.16;49.60
6343;BME280;3204;42.698;23.298;2023-04-16T01:26:12;94374.44;;;11.87;50.02
6343;BME280;3204;42.698;23.298;2023-04-16T01:28:39;94373.66;;;11.86;49.87
6343;BME280;3204;42.698;23.298;2023-04-16T01:31:05;94374.75;;;11.85;49.85
6343;BME280;3204;42.698;23.298;2023-04-16T01:33:30;94370.78;;;11.83;49.69
6343;BME280;3204;42.698;23.298;2023-04-16T01:35:55;94371.47;;;11.80;49.38
6343;BME280;3204;42.698;23.298;2023-04-16T01:38:21;94367.50;;;11.77;49.30
6343;BME280;3204;42.698;23.298;2023-04-16T01:40:46;94371.34;;;11.76;50.16
6343;BME280;3204;42.698;23.298;2023-04-16T01:43:12;94354.75;;;11.69;50.65
6343;BME280;3204;42.698;23.298;2023-04-16T01:45:37;94355.28;;;11.63;51.20
6343;BME280;3204;42.698;23.298;2023-04-16T01:48:03;94345.22;;;11.63;51.32
6343;BME280;3204;42.698;23.298;2023-04-16T01:50:29;94349.06;;;11.62;51.92
6343;BME280;3204;42.698;23.298;2023-04-16T01:52:55;94354.13;;;11.64;52.10
6343;BME280;3204;42.698;23.298;2023-04-16T01:55:20;94355.75;;;11.56;52.44
6343;BME280;3204;42.698;23.298;2023-04-16T01:57:46;94347.44;;;11.61;52.63
6343;BME280;3204;42.698;23.298;2023-04-16T02:00:11;94352.91;;;11.53;52.78
6343;BME280;3204;42.698;23.298;2023-04-16T02:02:37;94348.88;;;11.59;52.69
6343;BME280;3204;42.698;23.298;2023-04-16T02:05:03;94351.19;;;11.48;53.02
6343;BME280;3204;42.698;23.298;2023-04-16T02:07:29;94351.84;;;11.45;52.88
6343;BME280;3204;42.698;23.298;2023-04-16T02:09:56;94355.00;;;11.47;52.93
6343;BME280;3204;42.698;23.298;2023-04-16T02:12:22;94358.03;;;11.54;53.36
6343;BME280;3204;42.698;23.298;2023-04-16T02:14:47;94354.56;;;11.45;53.32
6343;BME280;3204;42.698;23.298;2023-04-16T02:17:13;94348.81;;;11.47;53.27
6343;BME280;3204;42.698;23.298;2023-04-16T02:19:39;94345.59;;;11.45;53.71
6343;BME280;3204;42.698;23.298;2023-04-16T02:22:05;94344.41;;;11.63;52.86
6343;BME280;3204;42.698;23.298;2023-04-16T02:24:31;94338.41;;;11.49;53.26
6343;BME280;3204;42.698;23.298;2023-04-16T02:26:56;94340.66;;;11.47;53.29
6343;BME280;3204;42.698;23.298;2023-04-16T02:29:22;94340.72;;;11.59;53.43
6343;BME280;3204;42.698;23.298;2023-04-16T02:31:48;94337.88;;;11.55;53.25
6343;BME280;3204;42.698;23.298;2023-04-16T02:34:14;94338.53;;;11.61;53.80
6343;BME280;3204;42.698;23.298;2023-04-16T02:36:40;94337.84;;;11.64;53.92
6343;BME280;3204;42.698;23.298;2023-04-16T02:39:05;94340.72;;;11.59;54.29
6343;BME280;3204;42.698;23.298;2023-04-16T02:41:31;94337.84;;;11.64;53.92
6343;BME280;3204;42.698;23.298;2023-04-16T02:43:56;94341.25;;;11.61;53.96
6343;BME280;3204;42.698;23.298;2023-04-16T02:46:22;94330.03;;;11.62;54.55
6343;BME280;3204;42.698;23.298;2023-04-16T02:48:47;94334.22;;;11.60;54.80
6343;BME280;3204;42.698;23.298;2023-04-16T02:51:13;94334.81;;;11.65;55.25
6343;BME280;3204;42.698;23.298;2023-04-16T02:53:38;94330.38;;;11.61;55.36
6343;BME280;3204;42.698;23.298;2023-04-16T02:56:04;94332.13;;;11.57;56.09
6343;BME280;3204;42.698;23.298;2023-04-16T02:58:30;94336.25;;;11.63;56.01
6343;BME280;3204;42.698;23.298;2023-04-16T03:00:55;94331.97;;;11.62;56.04
6343;BME280;3204;42.698;23.298;2023-04-16T03:03:20;94331.66;;;11.55;56.70
6343;BME280;3204;42.698;23.298;2023-04-16T03:05:46;94321.66;;;11.47;56.64
6343;BME280;3204;42.698;23.298;2023-04-16T03:08:12;94333.91;;;11.53;55.74
6343;BME280;3204;42.698;23.298;2023-04-16T03:10:37;94327.81;;;11.56;56.04
6343;BME280;3204;42.698;23.298;2023-04-16T03:13:03;94327.81;;;11.56;55.74
6343;BME280;3204;42.698;23.298;2023-04-16T03:15:29;94331.53;;;11.22;56.36
6343;BME280;3204;42.698;23.298;2023-04-16T03:17:55;94348.81;;;11.18;56.96
6343;BME280;3204;42.698;23.298;2023-04-16T03:20:22;94350.56;;;11.43;56.73
6343;BME280;3204;42.698;23.298;2023-04-16T03:22:48;94350.31;;;11.36;56.59
6343;BME280;3204;42.698;23.298;2023-04-16T03:25:14;94353.38;;;11.26;55.71
6343;BME280;3204;42.698;23.298;2023-04-16T03:27:39;94348.31;;;11.16;55.99
6343;BME280;3204;42.698;23.298;2023-04-16T03:30:06;94348.63;;;11.23;55.57
6343;BME280;3204;42.698;23.298;2023-04-16T03:32:32;94355.00;;;11.27;56.07
6343;BME280;3204;42.698;23.298;2023-04-16T03:34:57;94349.06;;;11.25;55.89
6343;BME280;3204;42.698;23.298;2023-04-16T03:37:23;94350.91;;;11.12;56.35
6343;BME280;3204;42.698;23.298;2023-04-16T03:39:48;94353.47;;;11.09;56.92
6343;BME280;3204;42.698;23.298;2023-04-16T03:42:13;94354.41;;;11.13;56.52
6343;BME280;3204;42.698;23.298;2023-04-16T03:44:39;94358.41;;;11.15;55.80
6343;BME280;3204;42.698;23.298;2023-04-16T03:47:05;94357.09;;;11.21;55.17
6343;BME280;3204;42.698;23.298;2023-04-16T03:49:30;94351.91;;;11.28;55.54
6343;BME280;3204;42.698;23.298;2023-04-16T03:51:55;94362.31;;;11.26;55.67
6343;BME280;3204;42.698;23.298;2023-04-16T03:54:21;94360.06;;;11.28;55.61
6343;BME280;3204;42.698;23.298;2023-04-16T03:56:46;94362.47;;;11.30;55.51
6343;BME280;3204;42.698;23.298;2023-04-16T03:59:12;94369.00;;;11.29;55.42
6343;BME280;3204;42.698;23.298;2023-04-16T04:01:37;94361.25;;;11.19;56.02
6343;BME280;3204;42.698;23.298;2023-04-16T04:04:03;94366.16;;;11.25;55.54
6343;BME280;3204;42.698;23.298;2023-04-16T04:06:28;94362.56;;;11.13;55.84
6343;BME280;3204;42.698;23.298;2023-04-16T04:08:53;94367.81;;;11.18;56.53
6343;BME280;3204;42.698;23.298;2023-04-16T04:11:19;94374.34;;;11.17;56.16
6343;BME280;3204;42.698;23.298;2023-04-16T04:13:44;94375.91;;;11.26;56.54
6343;BME280;3204;42.698;23.298;2023-04-16T04:16:10;94368.44;;;11.15;56.77
6343;BME280;3204;42.698;23.298;2023-04-16T04:18:36;94374.81;;;11.19;56.87
6343;BME280;3204;42.698;23.298;2023-04-16T04:21:07;94377.84;;;11.17;56.85
6343;BME280;3204;42.698;23.298;2023-04-16T04:23:33;94377.22;;;11.20;56.64
6343;BME280;3204;42.698;23.298;2023-04-16T04:25:59;94379.56;;;11.30;56.33
6343;BME280;3204;42.698;23.298;2023-04-16T04:28:30;94382.97;;;11.19;56.64
6343;BME280;3204;42.698;23.298;2023-04-16T04:30:57;94379.59;;;11.22;57.09
6343;BME280;3204;42.698;23.298;2023-04-16T04:33:24;94389.59;;;11.38;56.30
6343;BME280;3204;42.698;23.298;2023-04-16T04:35:49;94387.66;;;11.39;56.33
6343;BME280;3204;42.698;23.298;2023-04-16T04:38:15;94386.16;;;11.50;55.67
6343;BME280;3204;42.698;23.298;2023-04-16T04:40:47;94395.00;;;11.38;55.93
6343;BME280;3204;42.698;23.298;2023-04-16T04:43:12;94388.09;;;11.49;55.53
6343;BME280;3204;42.698;23.298;2023-04-16T04:45:38;94390.72;;;11.29;56.64
6343;BME280;3204;42.698;23.298;2023-04-16T04:48:04;94388.31;;;11.36;56.63
6343;BME280;3204;42.698;23.298;2023-04-16T04:50:29;94397.19;;;11.45;56.60
6343;BME280;3204;42.698;23.298;2023-04-16T04:52:55;94395.56;;;11.61;55.20
6343;BME280;3204;42.698;23.298;2023-04-16T04:55:20;94394.97;;;11.47;55.82
6343;BME280;3204;42.698;23.298;2023-04-16T04:57:46;94393.84;;;11.48;55.88
6343;BME280;3204;42.698;23.298;2023-04-16T05:00:11;94388.97;;;11.33;55.37
6343;BME280;3204;42.698;23.298;2023-04-16T05:02:37;94397.88;;;11.33;54.99
6343;BME280;3204;42.698;23.298;2023-04-16T05:05:03;94388.66;;;11.26;55.45
6343;BME280;3204;42.698;23.298;2023-04-16T05:07:29;94395.00;;;11.38;54.65
6343;BME280;3204;42.698;23.298;2023-04-16T05:09:55;94395.09;;;11.21;54.87
6343;BME280;3204;42.698;23.298;2023-04-16T05:12:20;94401.59;;;11.29;55.02
6343;BME280;3204;42.698;23.298;2023-04-16T05:14:46;94394.66;;;11.40;55.20
6343;BME280;3204;42.698;23.298;2023-04-16T05:17:11;94398.47;;;11.47;54.33
6343;BME280;3204;42.698;23.298;2023-04-16T05:19:37;94393.72;;;11.73;53.61
6343;BME280;3204;42.698;23.298;2023-04-16T05:22:02;94386.41;;;11.65;53.70
6343;BME280;3204;42.698;23.298;2023-04-16T05:24:28;94394.09;;;11.63;53.85
6343;BME280;3204;42.698;23.298;2023-04-16T05:26:54;94394.03;;;11.72;53.76
6343;BME280;3204;42.698;23.298;2023-04-16T05:29:20;94393.59;;;11.70;54.00
6343;BME280;3204;42.698;23.298;2023-04-16T05:31:46;94394.59;;;11.86;53.33
6343;BME280;3204;42.698;23.298;2023-04-16T05:34:11;94398.63;;;11.80;53.96
6343;BME280;3204;42.698;23.298;2023-04-16T05:36:37;94389.91;;;11.95;53.65
6343;BME280;3204;42.698;23.298;2023-04-16T05:39:02;94391.69;;;11.91;53.18
6343;BME280;3204;42.698;23.298;2023-04-16T05:41:28;94387.09;;;11.83;53.68
6343;BME280;3204;42.698;23.298;2023-04-16T05:43:53;94391.22;;;11.89;53.83
6343;BME280;3204;42.698;23.298;2023-04-16T05:46:19;94397.88;;;11.71;54.57
6343;BME280;3204;42.698;23.298;2023-04-16T05:48:45;94389.31;;;11.60;54.62
6343;BME280;3204;42.698;23.298;2023-04-16T05:51:10;94400.88;;;11.78;54.57
6343;BME280;3204;42.698;23.298;2023-04-16T05:53:36;94385.25;;;11.75;54.84
6343;BME280;3204;42.698;23.298;2023-04-16T05:56:02;94388.41;;;11.77;54.68
6343;BME280;3204;42.698;23.298;2023-04-16T05:58:27;94392.53;;;11.83;55.01
6343;BME280;3204;42.698;23.298;2023-04-16T06:00:53;94386.53;;;11.98;55.16
6343;BME280;3204;42.698;23.298;2023-04-16T06:03:18;94395.88;;;12.09;54.86
6343;BME280;3204;42.698;23.298;2023-04-16T06:05:44;94395.25;;;12.03;55.27
6343;BME280;3204;42.698;23.298;2023-04-16T06:08:10;94396.91;;;11.96;55.48
6343;BME280;3204;42.698;23.298;2023-04-16T06:10:35;94392.69;;;11.86;56.08
6343;BME280;3204;42.698;23.298;2023-04-16T06:13:00;94396.28;;;11.99;55.84
6343;BME280;3204;42.698;23.298;2023-04-16T06:15:26;94391.81;;;12.15;55.65
6343;BME280;3204;42.698;23.298;2023-04-16T06:17:51;94395.06;;;12.08;55.70
6343;BME280;3204;42.698;23.298;2023-04-16T06:20:17;94384.59;;;12.19;55.10
6343;BME280;3204;42.698;23.298;2023-04-16T06:22:42;94387.00;;;12.20;55.24
6343;BME280;3204;42.698;23.298;2023-04-16T06:25:08;94389.22;;;12.18;55.47
6343;BME280;3204;42.698;23.298;2023-04-16T06:27:33;94390.09;;;12.31;55.31
6343;BME280;3204;42.698;23.298;2023-04-16T06:29:59;94391.69;;;12.52;54.88
6343;BME280;3204;42.698;23.298;2023-04-16T06:32:25;94384.59;;;12.72;53.81
6343;BME280;3204;42.698;23.298;2023-04-16T06:34:50;94380.28;;;12.71;53.56
6343;BME280;3204;42.698;23.298;2023-04-16T06:37:16;94376.22;;;12.77;53.26
6343;BME280;3204;42.698;23.298;2023-04-16T06:39:41;94384.19;;;12.94;52.58
6343;BME280;3204;42.698;23.298;2023-04-16T06:42:06;94380.03;;;13.08;52.26
6343;BME280;3204;42.698;23.298;2023-04-16T06:44:32;94384.97;;;13.27;51.15
6343;BME280;3204;42.698;23.298;2023-04-16T06:46:58;94387.81;;;13.54;51.10
6343;BME280;3204;42.698;23.298;2023-04-16T06:49:23;94388.94;;;13.65;50.31
6343;BME280;3204;42.698;23.298;2023-04-16T06:51:49;94394.28;;;13.74;50.33
6343;BME280;3204;42.698;23.298;2023-04-16T06:54:14;94388.38;;;13.84;50.08
6343;BME280;3204;42.698;23.298;2023-04-16T06:56:40;94388.09;;;14.01;49.53
6343;BME280;3204;42.698;23.298;2023-04-16T06:59:06;94384.56;;;14.24;49.40
6343;BME280;3204;42.698;23.298;2023-04-16T07:01:32;94391.22;;;14.39;48.99
6343;BME280;3204;42.698;23.298;2023-04-16T07:03:58;94379.88;;;14.37;49.16
6343;BME280;3204;42.698;23.298;2023-04-16T07:06:23;94373.22;;;13.98;49.78
6343;BME280;3204;42.698;23.298;2023-04-16T07:08:49;94388.91;;;13.89;50.15
6343;BME280;3204;42.698;23.298;2023-04-16T07:11:15;94379.81;;;13.97;50.11
6343;BME280;3204;42.698;23.298;2023-04-16T07:13:40;94375.50;;;14.08;50.70
6343;BME280;3204;42.698;23.298;2023-04-16T07:16:06;94383.78;;;14.12;51.19
6343;BME280;3204;42.698;23.298;2023-04-16T07:18:32;94383.78;;;14.12;51.29
6343;BME280;3204;42.698;23.298;2023-04-16T07:20:58;94384.91;;;14.23;51.83
6343;BME280;3204;42.698;23.298;2023-04-16T07:23:23;94384.53;;;14.36;51.74
6343;BME280;3204;42.698;23.298;2023-04-16T07:25:48;94389.97;;;14.36;51.09
6343;BME280;3204;42.698;23.298;2023-04-16T07:28:14;94388.72;;;14.46;51.08
6343;BME280;3204;42.698;23.298;2023-04-16T07:30:41;94384.91;;;14.62;50.69
6343;BME280;3204;42.698;23.298;2023-04-16T07:33:07;94377.25;;;14.68;50.75
6343;BME280;3204;42.698;23.298;2023-04-16T07:35:33;94386.56;;;14.67;51.17
6343;BME280;3204;42.698;23.298;2023-04-16T07:37:58;94383.75;;;14.63;50.43
6343;BME280;3204;42.698;23.298;2023-04-16T07:40:23;94381.91;;;14.67;51.29
6343;BME280;3204;42.698;23.298;2023-04-16T07:42:49;94380.97;;;14.75;50.54
6343;BME280;3204;42.698;23.298;2023-04-16T07:45:16;94386.84;;;14.89;50.51
6343;BME280;3204;42.698;23.298;2023-04-16T07:47:41;94384.81;;;15.02;50.57
6343;BME280;3204;42.698;23.298;2023-04-16T07:50:07;94383.16;;;15.13;50.09
6343;BME280;3204;42.698;23.298;2023-04-16T07:52:33;94389.88;;;15.31;49.53
6343;BME280;3204;42.698;23.298;2023-04-16T07:54:58;94384.97;;;15.52;48.73
6343;BME280;3204;42.698;23.298;2023-04-16T07:57:24;94377.91;;;15.66;48.26
6343;BME280;3204;42.698;23.298;2023-04-16T07:59:49;94384.06;;;15.79;48.38
6343;BME280;3204;42.698;23.298;2023-04-16T08:02:15;94380.66;;;15.51;49.30
6343;BME280;3204;42.698;23.298;2023-04-16T08:04:41;94378.44;;;15.41;49.11
6343;BME280;3204;42.698;23.298;2023-04-16T08:07:07;94380.84;;;15.58;48.91
6343;BME280;3204;42.698;23.298;2023-04-16T08:09:33;94384.78;;;15.76;48.82
6343;BME280;3204;42.698;23.298;2023-04-16T08:12:00;94380.44;;;15.75;48.47
6343;BME280;3204;42.698;23.298;2023-04-16T08:14:25;94372.03;;;15.99;48.37
6343;BME280;3204;42.698;23.298;2023-04-16T08:16:51;94377.03;;;15.78;48.70
6343;BME280;3204;42.698;23.298;2023-04-16T08:19:17;94375.91;;;15.98;48.61
6343;BME280;3204;42.698;23.298;2023-04-16T08:21:42;94371.09;;;16.26;47.71
6343;BME280;3204;42.698;23.298;2023-04-16T08:24:08;94371.44;;;16.24;47.80
6343;BME280;3204;42.698;23.298;2023-04-16T08:26:34;94371.06;;;16.61;47.40
6343;BME280;3204;42.698;23.298;2023-04-16T08:28:59;94356.72;;;16.86;46.53
6343;BME280;3204;42.698;23.298;2023-04-16T08:31:24;94359.56;;;17.12;46.15
6343;BME280;3204;42.698;23.298;2023-04-16T08:33:50;94365.44;;;17.14;46.09
6343;BME280;3204;42.698;23.298;2023-04-16T08:36:15;94362.44;;;17.00;45.86
6343;BME280;3204;42.698;23.298;2023-04-16T08:38:41;94361.22;;;16.98;45.96
6343;BME280;3204;42.698;23.298;2023-04-16T08:41:09;94356.44;;;16.91;45.73
6343;BME280;3204;42.698;23.298;2023-04-16T08:43:37;94341.66;;;16.77;45.91
6343;BME280;3204;42.698;23.298;2023-04-16T08:46:04;94349.16;;;16.80;46.21
6343;BME280;3204;42.698;23.298;2023-04-16T08:48:32;94338.03;;;17.14;45.88
6343;BME280;3204;42.698;23.298;2023-04-16T08:50:59;94346.81;;;17.23;45.01
6343;BME280;3204;42.698;23.298;2023-04-16T08:53:32;94350.00;;;17.25;45.00
6343;BME280;3204;42.698;23.298;2023-04-16T08:56:04;94343.75;;;17.47;44.70
6343;BME280;3204;42.698;23.298;2023-04-16T08:58:32;94344.50;;;17.70;44.13
6343;BME280;3204;42.698;23.298;2023-04-16T09:01:01;94334.78;;;17.50;44.24
6343;BME280;3204;42.698;23.298;2023-04-16T09:03:29;94341.13;;;17.32;44.32
6343;BME280;3204;42.698;23.298;2023-04-16T09:05:56;94338.75;;;16.89;44.71
6343;BME280;3204;42.698;23.298;2023-04-16T09:08:24;94336.81;;;16.89;44.88
6343;BME280;3204;42.698;23.298;2023-04-16T09:10:50;94332.53;;;16.92;44.23
6343;BME280;3204;42.698;23.298;2023-04-16T09:13:15;94322.72;;;16.68;44.26
6343;BME280;3204;42.698;23.298;2023-04-16T09:15:44;94325.75;;;16.63;44.90
6343;BME280;3204;42.698;23.298;2023-04-16T09:18:10;94334.38;;;16.65;45.00
6343;BME280;3204;42.698;23.298;2023-04-16T09:20:37;94325.94;;;16.73;44.76
6343;BME280;3204;42.698;23.298;2023-04-16T09:23:02;94336.81;;;17.12;44.90
6343;BME280;3204;42.698;23.298;2023-04-16T09:25:32;94329.63;;;17.45;44.15
6343;BME280;3204;42.698;23.298;2023-04-16T09:27:59;94338.72;;;17.75;43.98
6343;BME280;3204;42.698;23.298;2023-04-16T09:30:25;94327.28;;;17.47;44.71
6343;BME280;3204;42.698;23.298;2023-04-16T09:33:11;94331.78;;;17.59;44.42
6343;BME280;3204;42.698;23.298;2023-04-16T09:35:47;94329.53;;;17.64;44.81
6343;BME280;3204;42.698;23.298;2023-04-16T09:38:12;94327.66;;;17.68;44.34
6343;BME280;3204;42.698;23.298;2023-04-16T09:40:37;94328.84;;;17.97;43.60
6343;BME280;3204;42.698;23.298;2023-04-16T09:43:14;94330.50;;;18.57;42.56
6343;BME280;3204;42.698;23.298;2023-04-16T09:45:48;94326.06;;;19.18;41.12
6343;BME280;3204;42.698;23.298;2023-04-16T09:48:14;94334.13;;;19.77;40.06
6343;BME280;3204;42.698;23.298;2023-04-16T09:50:48;94325.03;;;20.27;37.90
6343;BME280;3204;42.698;23.298;2023-04-16T09:53:23;94314.97;;;20.49;38.37
6343;BME280;3204;42.698;23.298;2023-04-16T09:55:48;94320.59;;;20.87;37.74
6343;BME280;3204;42.698;23.298;2023-04-16T09:58:17;94310.50;;;20.30;37.90
6343;BME280;3204;42.698;23.298;2023-04-16T10:00:43;94314.81;;;20.28;38.28
6343;BME280;3204;42.698;23.298;2023-04-16T10:03:08;94317.88;;;20.12;37.92
6343;BME280;3204;42.698;23.298;2023-04-16T10:05:35;94306.97;;;19.76;38.34
6343;BME280;3204;42.698;23.298;2023-04-16T10:08:01;94297.41;;;19.59;39.10
6343;BME280;3204;42.698;23.298;2023-04-16T10:10:27;94304.56;;;19.67;38.63
6343;BME280;3204;42.698;23.298;2023-04-16T10:12:54;94305.78;;;19.77;38.56
6343;BME280;3204;42.698;23.298;2023-04-16T10:15:20;94297.16;;;19.78;38.54
6343;BME280;3204;42.698;23.298;2023-04-16T10:17:46;94304.91;;;19.59;38.62
6343;BME280;3204;42.698;23.298;2023-04-16T10:20:12;94298.47;;;19.44;38.99
6343;BME280;3204;42.698;23.298;2023-04-16T10:22:39;94294.78;;;19.30;39.15
6343;BME280;3204;42.698;23.298;2023-04-16T10:25:05;94282.44;;;19.13;39.47
6343;BME280;3204;42.698;23.298;2023-04-16T10:27:32;94285.25;;;19.20;39.43
6343;BME280;3204;42.698;23.298;2023-04-16T10:29:58;94288.91;;;18.91;40.10
6343;BME280;3204;42.698;23.298;2023-04-16T10:32:24;94277.22;;;19.01;40.12
6343;BME280;3204;42.698;23.298;2023-04-16T10:34:53;94278.28;;;19.30;39.64
6343;BME280;3204;42.698;23.298;2023-04-16T10:37:28;94289.50;;;19.54;39.59
6343;BME280;3204;42.698;23.298;2023-04-16T10:39:54;94277.88;;;19.75;39.09
6343;BME280;3204;42.698;23.298;2023-04-16T10:42:20;94269.00;;;20.02;38.64
6343;BME280;3204;42.698;23.298;2023-04-16T10:44:46;94277.00;;;20.14;38.62
6343;BME280;3204;42.698;23.298;2023-04-16T10:47:12;94275.50;;;20.34;38.15
6343;BME280;3204;42.698;23.298;2023-04-16T10:49:38;94278.78;;;20.61;38.10
6343;BME280;3204;42.698;23.298;2023-04-16T10:52:10;94277.34;;;20.95;36.84
6343;BME280;3204;42.698;23.298;2023-04-16T10:54:37;94272.22;;;21.00;36.98
6343;BME280;3204;42.698;23.298;2023-04-16T10:57:05;94267.81;;;20.78;37.02
6343;BME280;3204;42.698;23.298;2023-04-16T10:59:32;94270.97;;;20.84;37.28
6343;BME280;3204;42.698;23.298;2023-04-16T11:02:00;94264.72;;;21.01;37.32
6343;BME280;3204;42.698;23.298;2023-04-16T11:04:33;94263.19;;;21.17;36.99
6343;BME280;3204;42.698;23.298;2023-04-16T11:09:49;94259.22;;;21.01;36.72
6343;BME280;3204;42.698;23.298;2023-04-16T11:12:24;94247.41;;;21.00;37.08
6343;BME280;3204;42.698;23.298;2023-04-16T11:15:05;94256.13;;;21.27;36.63
6343;BME280;3204;42.698;23.298;2023-04-16T11:17:45;94249.03;;;21.75;36.34
6343;BME280;3204;42.698;23.298;2023-04-16T11:20:27;94239.44;;;22.32;35.57
6343;BME280;3204;42.698;23.298;2023-04-16T11:22:54;94239.34;;;22.63;35.04
6343;BME280;3204;42.698;23.298;2023-04-16T11:25:21;94237.38;;;22.64;34.73
6343;BME280;3204;42.698;23.298;2023-04-16T11:27:47;94233.91;;;22.42;34.66
6343;BME280;3204;42.698;23.298;2023-04-16T11:30:13;94226.56;;;21.34;36.15
6343;BME280;3204;42.698;23.298;2023-04-16T11:32:39;94227.75;;;21.16;36.42
6343;BME280;3204;42.698;23.298;2023-04-16T11:35:14;94233.16;;;20.77;37.37
6343;BME280;3204;42.698;23.298;2023-04-16T11:37:40;94220.81;;;20.36;37.94
6343;BME280;3204;42.698;23.298;2023-04-16T11:40:06;94215.59;;;20.10;38.15
6343;BME280;3204;42.698;23.298;2023-04-16T11:42:34;94214.03;;;20.20;37.64
6343;BME280;3204;42.698;23.298;2023-04-16T11:45:03;94210.97;;;20.28;37.90
6343;BME280;3204;42.698;23.298;2023-04-16T11:47:29;94204.25;;;20.26;37.71
6343;BME280;3204;42.698;23.298;2023-04-16T11:49:56;94203.00;;;20.09;38.21
6343;BME280;3204;42.698;23.298;2023-04-16T11:52:30;94205.63;;;19.92;38.73
6343;BME280;3204;42.698;23.298;2023-04-16T11:54:56;94205.19;;;19.83;38.31
6343;BME280;3204;42.698;23.298;2023-04-16T11:57:26;94196.84;;;19.69;38.23
6343;BME280;3204;42.698;23.298;2023-04-16T11:59:52;94191.81;;;19.78;38.46
6343;BME280;3204;42.698;23.298;2023-04-16T12:02:42;94194.59;;;19.88;38.55
6343;BME280;3204;42.698;23.298;2023-04-16T12:05:31;94193.09;;;20.01;37.99
6343;BME280;3204;42.698;23.298;2023-04-16T12:07:59;94187.28;;;20.13;38.03
6343;BME280;3204;42.698;23.298;2023-04-16T12:10:25;94177.38;;;20.02;37.89
6343;BME280;3204;42.698;23.298;2023-04-16T12:12:51;94177.75;;;20.00;38.50
6343;BME280;3204;42.698;23.298;2023-04-16T12:15:17;94175.00;;;19.97;38.26
6343;BME280;3204;42.698;23.298;2023-04-16T12:17:42;94176.56;;;19.94;38.67
6343;BME280;3204;42.698;23.298;2023-04-16T12:20:12;94159.66;;;19.99;38.67
6343;BME280;3204;42.698;23.298;2023-04-16T12:22:43;94162.91;;;20.22;38.38
6343;BME280;3204;42.698;23.298;2023-04-16T12:25:16;94158.66;;;20.49;37.51
6343;BME280;3204;42.698;23.298;2023-04-16T12:27:53;94165.00;;;20.71;36.97
6343;BME280;3204;42.698;23.298;2023-04-16T12:30:21;94163.88;;;20.89;36.95
6343;BME280;3204;42.698;23.298;2023-04-16T12:32:52;94157.59;;;20.99;37.02
6343;BME280;3204;42.698;23.298;2023-04-16T12:35:33;94156.81;;;20.95;36.89
6343;BME280;3204;42.698;23.298;2023-04-16T12:37:59;94155.22;;;20.94;36.67
6343;BME280;3204;42.698;23.298;2023-04-16T12:40:24;94152.44;;;20.91;36.84
6343;BME280;3204;42.698;23.298;2023-04-16T12:42:50;94149.28;;;20.85;36.72
6343;BME280;3204;42.698;23.298;2023-04-16T12:45:16;94148.47;;;20.74;37.21
6343;BME280;3204;42.698;23.298;2023-04-16T12:47:41;94147.28;;;20.65;37.14
6343;BME280;3204;42.698;23.298;2023-04-16T12:50:07;94148.44;;;20.53;37.38
6343;BME280;3204;42.698;23.298;2023-04-16T12:52:33;94144.50;;;20.54;37.58
6343;BME280;3204;42.698;23.298;2023-04-16T12:55:00;94144.47;;;20.44;37.78
6343;BME280;3204;42.698;23.298;2023-04-16T12:57:26;94149.56;;;20.31;37.77
6343;BME280;3204;42.698;23.298;2023-04-16T12:59:56;94138.94;;;20.26;37.83
6343;BME280;3204;42.698;23.298;2023-04-16T13:02:22;94133.72;;;20.07;38.41
6343;BME280;3204;42.698;23.298;2023-04-16T13:04:48;94137.66;;;20.06;38.84
6343;BME280;3204;42.698;23.298;2023-04-16T13:07:14;94146.22;;;19.87;39.62
6343;BME280;3204;42.698;23.298;2023-04-16T13:09:41;94133.59;;;19.76;40.66